Time;durP1;ratioP1;P1;durP2;ratioP2;P2;SDS_P1;SDS_P2;PMS_P1;PMS_P2;Temp;Humidity;BMP_temperature;BMP_pressure;BME280_temperature;BME280_humidity;BME280_pressure;Samples;Min_cycle;Max_cycle;Signal;HPM_P1;HPM_P2
2024/01/26 00:02:06;;;;;;;22.55;10.85;;;;;;;-0.64;71.52;99042.50;4805205;29;20050;-64
2024/01/26 00:04:35;;;;;;;23.25;11.25;;;;;;;-0.85;71.25;99022.38;4804154;29;20046;-64
2024/01/26 00:07:05;;;;;;;21.50;10.77;;;;;;;-0.88;70.78;99024.84;4802600;29;20062;-64
2024/01/26 00:09:32;;;;;;;23.02;10.60;;;;;;;-0.78;70.78;99043.84;4803788;29;20409;-64
2024/01/26 00:12:01;;;;;;;26.88;12.35;;;;;;;-1.20;70.42;98989.16;4792292;29;20129;-65
2024/01/26 00:14:27;;;;;;;23.70;10.68;;;;;;;-0.96;70.91;99016.16;4788308;29;20038;-66
2024/01/26 00:16:54;;;;;;;23.83;11.15;;;;;;;-1.13;69.74;99028.50;4806955;29;20125;-65
2024/01/26 00:19:22;;;;;;;24.75;10.75;;;;;;;-1.15;70.29;99036.13;4805149;29;20072;-65
2024/01/26 00:21:51;;;;;;;27.00;12.20;;;;;;;-1.11;70.77;99020.06;4793509;29;20046;-65
2024/01/26 00:24:17;;;;;;;21.60;11.02;;;;;;;-1.10;69.71;99057.50;4801355;29;20114;-65
2024/01/26 00:26:47;;;;;;;25.63;12.07;;;;;;;-1.39;70.14;99049.06;4791472;29;20068;-65
2024/01/26 00:29:13;;;;;;;25.40;12.25;;;;;;;-1.18;70.77;99053.91;4806738;29;20042;-64
2024/01/26 00:31:45;;;;;;;23.05;10.60;;;;;;;-1.04;71.17;99046.63;4804344;29;20039;-65
2024/01/26 00:34:11;;;;;;;;;;;;;;;-0.91;70.55;99065.69;4820394;29;20042;-65
2024/01/26 00:36:37;;;;;;;19.73;10.18;;;;;;;-0.85;70.78;99064.97;4818969;29;19967;-64
2024/01/26 00:39:04;;;;;;;23.05;10.75;;;;;;;-1.23;69.78;99032.50;4818179;29;20046;-64
2024/01/26 00:41:34;;;;;;;21.75;10.77;;;;;;;-1.42;69.56;99047.31;4792642;29;20094;-64
2024/01/26 00:44:01;;;;;;;21.67;10.40;;;;;;;-1.63;70.14;99034.81;4804114;29;20061;-66
2024/01/26 00:46:27;;;;;;;22.40;10.80;;;;;;;-1.38;70.76;99048.25;4787918;29;20057;-65
2024/01/26 00:48:54;;;;;;;23.63;10.80;;;;;;;-1.22;70.92;99045.31;4803683;29;20046;-66
2024/01/26 00:51:23;;;;;;;23.02;10.35;;;;;;;-1.12;70.40;99048.97;4804310;29;20042;-62
2024/01/26 00:53:52;;;;;;;25.70;10.90;;;;;;;-1.28;70.00;99046.81;4808811;29;20050;-62
2024/01/26 00:56:23;;;;;;;26.27;11.32;;;;;;;-1.30;70.75;99045.91;4806545;29;20184;-63
2024/01/26 00:58:49;;;;;;;22.73;10.27;;;;;;;-1.09;71.45;99053.28;4806209;29;20046;-63
2024/01/26 01:01:15;;;;;;;27.23;10.93;;;;;;;-1.15;69.88;99056.56;4781468;29;20055;-63
2024/01/26 01:03:42;;;;;;;23.52;11.52;;;;;;;-1.01;71.08;99071.34;4807476;29;20529;-62
2024/01/26 01:06:11;;;;;;;22.20;9.75;;;;;;;-0.99;70.11;99073.13;4807165;29;20054;-63
2024/01/26 01:08:38;;;;;;;22.70;11.00;;;;;;;-1.09;70.52;99078.81;4808976;29;20047;-64
2024/01/26 01:11:05;;;;;;;26.58;12.80;;;;;;;-1.39;70.18;99055.06;4795556;29;20088;-65
2024/01/26 01:13:43;;;;;;;33.95;15.20;;;;;;;-1.31;70.46;99067.16;4795872;29;20086;-63
2024/01/26 01:16:12;;;;;;;41.35;18.00;;;;;;;-1.27;70.71;99074.97;4805761;29;20057;-64
2024/01/26 01:18:50;;;;;;;46.00;17.48;;;;;;;-1.03;70.76;99079.00;4786854;29;20082;-64
2024/01/26 01:21:19;;;;;;;35.25;15.30;;;;;;;-1.14;70.16;99072.72;4786262;29;20047;-63
2024/01/26 01:23:45;;;;;;;41.13;17.52;;;;;;;-0.97;70.78;99075.72;4787462;29;20039;-64
2024/01/26 01:26:11;;;;;;;41.97;18.88;;;;;;;-0.86;71.15;99076.00;4759270;29;20076;-64
2024/01/26 01:28:37;;;;;;;39.60;17.38;;;;;;;-0.84;70.35;99084.56;4789564;29;20138;-64
2024/01/26 01:31:09;;;;;;;34.35;15.63;;;;;;;-1.06;69.47;99069.53;4769703;29;20047;-65
2024/01/26 01:33:36;;;;;;;30.77;14.52;;;;;;;-1.13;70.83;99077.88;4775632;29;20054;-64
2024/01/26 01:36:05;;;;;;;26.60;13.50;;;;;;;-1.24;69.45;99054.63;4789060;29;20125;-64
2024/01/26 01:38:31;;;;;;;29.63;14.15;;;;;;;-1.11;69.75;99085.56;4787122;29;20157;-64
2024/01/26 01:40:58;;;;;;;28.02;13.68;;;;;;;-1.23;70.74;99076.78;4790114;29;20043;-64
2024/01/26 01:43:24;;;;;;;30.50;13.55;;;;;;;-1.23;70.47;99079.34;4791148;29;20147;-62
2024/01/26 01:45:53;;;;;;;24.60;12.65;;;;;;;-1.11;70.38;99076.25;4791122;29;20047;-66
2024/01/26 01:48:20;;;;;;;26.50;13.27;;;;;;;-0.93;70.22;99106.50;4790099;29;20054;-64
2024/01/26 01:50:49;;;;;;;27.63;12.70;;;;;;;-0.88;70.33;99100.63;4784418;29;20071;-64
2024/01/26 01:53:15;;;;;;;27.70;13.35;;;;;;;-1.02;69.88;99107.94;4785051;29;20043;-65
2024/01/26 01:55:43;;;;;;;27.40;13.00;;;;;;;-1.21;70.22;99107.44;4774565;29;20043;-64
2024/01/26 01:58:13;;;;;;;32.65;14.45;;;;;;;-1.34;69.36;99113.91;4795489;29;20144;-64
2024/01/26 02:00:41;;;;;;;36.92;15.63;;;;;;;-1.44;70.28;99094.06;4786508;29;20114;-64
2024/01/26 02:03:07;;;;;;;30.50;14.60;;;;;;;-1.55;69.50;99094.59;4782962;29;20055;-64
2024/01/26 02:05:34;;;;;;;34.83;14.07;;;;;;;-1.39;71.02;99098.47;4783094;29;20071;-66
2024/01/26 02:08:00;;;;;;;33.03;14.90;;;;;;;-1.13;70.64;99112.75;4786397;29;20047;-64
2024/01/26 02:10:26;;;;;;;27.17;12.88;;;;;;;-1.04;70.53;99117.25;4788433;29;20047;-64
2024/01/26 02:12:55;;;;;;;27.05;12.75;;;;;;;-1.37;68.97;99095.94;4786797;29;20047;-64
2024/01/26 02:15:21;;;;;;;24.02;11.73;;;;;;;-1.49;68.95;99118.56;4770688;29;20084;-64
2024/01/26 02:18:07;;;;;;;24.50;12.70;;;;;;;-1.54;69.93;99126.97;4788655;29;20065;-65
2024/01/26 02:20:34;;;;;;;26.85;12.77;;;;;;;-1.56;70.70;99120.09;4804742;29;20043;-64
2024/01/26 02:23:00;;;;;;;28.77;13.50;;;;;;;-1.44;70.27;99115.31;4815169;29;20046;-64
2024/01/26 02:25:26;;;;;;;27.92;13.68;;;;;;;-1.16;70.51;99120.31;4791811;29;20054;-64
2024/01/26 02:27:52;;;;;;;26.45;11.85;;;;;;;-0.96;71.27;99134.50;4802214;29;20518;-63
2024/01/26 02:30:19;;;;;;;39.17;17.05;;;;;;;-1.10;69.50;99138.38;4791195;29;20133;-63
2024/01/26 02:32:45;;;;;;;38.35;16.25;;;;;;;-1.44;69.56;99135.75;4805581;29;20043;-64
2024/01/26 02:35:11;;;;;;;31.98;14.90;;;;;;;-1.63;68.82;99149.63;4774789;29;20407;-65
2024/01/26 02:37:37;;;;;;;32.33;13.23;;;;;;;-1.91;70.42;99112.25;4801736;29;20380;-65
2024/01/26 02:40:04;;;;;;;29.85;13.60;;;;;;;-1.90;69.62;99158.22;4803032;29;20055;-64
2024/01/26 02:42:33;;;;;;;29.83;13.10;;;;;;;-1.79;70.75;99162.75;4791188;29;20053;-65
2024/01/26 02:44:59;;;;;;;28.65;13.05;;;;;;;-1.57;70.69;99165.16;4801654;29;20503;-65
2024/01/26 02:47:25;;;;;;;25.98;12.25;;;;;;;-1.45;70.31;99164.66;4789730;29;20512;-66
2024/01/26 02:49:52;;;;;;;26.42;11.80;;;;;;;-1.57;70.13;99149.84;4803044;29;20150;-66
2024/01/26 02:52:22;;;;;;;23.25;11.40;;;;;;;-1.57;70.26;99164.28;4802023;29;20039;-65
2024/01/26 02:54:52;;;;;;;25.65;11.00;;;;;;;-1.73;69.98;99173.16;4803769;29;20399;-64
2024/01/26 02:57:20;;;;;;;24.88;11.40;;;;;;;-2.00;69.80;99167.25;4788291;29;20047;-64
2024/01/26 02:59:47;;;;;;;25.02;11.40;;;;;;;-2.12;69.81;99183.03;4803096;29;20070;-63
2024/01/26 03:02:17;;;;;;;26.17;11.88;;;;;;;-2.09;69.77;99176.28;4800356;29;20050;-65
2024/01/26 03:04:46;;;;;;;24.13;11.77;;;;;;;-2.08;69.42;99178.91;4814438;29;20070;-65
2024/01/26 03:07:12;;;;;;;25.40;12.00;;;;;;;-1.98;70.67;99175.81;4803365;29;20047;-64
2024/01/26 03:09:39;;;;;;;22.35;11.00;;;;;;;-1.78;70.92;99177.25;4787094;29;20127;-67
2024/01/26 03:12:05;;;;;;;24.85;10.93;;;;;;;-1.95;71.04;99139.34;4801504;29;20099;-64
2024/01/26 03:14:31;;;;;;;25.23;11.75;;;;;;;-1.61;70.46;99193.94;4800813;29;20047;-65
2024/01/26 03:17:00;;;;;;;24.38;11.55;;;;;;;-1.95;70.11;99162.31;4809210;29;20467;-64
2024/01/26 03:19:26;;;;;;;23.73;11.63;;;;;;;-1.94;70.30;99197.19;4789049;29;20051;-64
2024/01/26 03:21:52;;;;;;;27.55;12.38;;;;;;;-1.93;69.78;99188.72;4808620;29;20047;-66
2024/01/26 03:24:19;;;;;;;23.05;11.25;;;;;;;-2.05;69.89;99196.84;4804321;29;20061;-66
2024/01/26 03:26:45;;;;;;;28.95;12.15;;;;;;;-2.09;70.15;99200.09;4793079;29;20098;-69
2024/01/26 03:29:11;;;;;;;27.05;12.50;;;;;;;-2.25;70.09;99180.03;4792092;29;20096;-65
2024/01/26 03:31:37;;;;;;;26.42;12.45;;;;;;;-2.12;70.23;99197.44;4802927;29;20046;-65
2024/01/26 03:34:06;;;;;;;31.45;12.40;;;;;;;-2.19;70.71;99196.41;4807627;29;20077;-65
2024/01/26 03:36:37;;;;;;;29.10;12.85;;;;;;;-2.09;70.48;99191.56;4803143;29;20403;-65
2024/01/26 03:39:03;;;;;;;31.08;12.90;;;;;;;-1.98;71.29;99198.75;4805108;29;20050;-66
2024/01/26 03:41:40;;;;;;;28.20;12.32;;;;;;;-1.96;70.38;99201.38;4817099;29;20042;-65
2024/01/26 03:44:10;;;;;;;27.30;12.52;;;;;;;-2.04;70.08;99206.22;4804454;29;20042;-64
2024/01/26 03:46:45;;;;;;;26.13;12.27;;;;;;;-1.96;70.76;99211.56;4806798;29;20140;-66
2024/01/26 03:49:14;;;;;;;24.35;11.52;;;;;;;-1.94;70.84;99220.13;4797296;29;20065;-67
2024/01/26 03:51:46;;;;;;;27.80;12.05;;;;;;;-1.78;71.17;99223.16;4779531;29;20054;-65
2024/01/26 03:54:14;;;;;;;27.17;12.27;;;;;;;-1.91;70.34;99209.16;4804073;29;20053;-66
2024/01/26 03:56:43;;;;;;;26.48;11.15;;;;;;;-1.94;71.00;99222.69;4805205;29;20067;-66
2024/01/26 03:59:09;;;;;;;24.60;10.45;;;;;;;-2.13;70.04;99232.31;4803484;29;20438;-65
2024/01/26 04:01:37;;;;;;;22.60;10.82;;;;;;;-2.46;69.51;99225.22;4791155;29;20091;-66
2024/01/26 04:04:06;;;;;;;26.15;11.75;;;;;;;-2.57;69.66;99229.09;4793170;29;20042;-66
2024/01/26 04:06:33;;;;;;;22.95;10.82;;;;;;;-2.81;70.36;99196.88;4792982;29;20069;-66
2024/01/26 04:08:59;;;;;;;27.23;11.13;;;;;;;-2.65;70.78;99225.41;4802468;29;20046;-65
2024/01/26 04:11:25;;;;;;;25.73;11.27;;;;;;;-2.51;71.08;99242.03;4799362;29;20039;-66
2024/01/26 04:13:54;;;;;;;24.95;11.18;;;;;;;-2.38;70.19;99248.44;4818208;29;20053;-64
2024/01/26 04:16:21;;;;;;;24.70;11.85;;;;;;;-2.43;71.11;99243.19;4804527;29;20053;-68
2024/01/26 04:18:47;;;;;;;27.95;11.98;;;;;;;-2.50;71.20;99232.72;4788102;29;20206;-66
2024/01/26 04:21:13;;;;;;;29.13;12.27;;;;;;;-2.31;71.59;99246.94;4787548;29;20589;-65
2024/01/26 04:23:43;;;;;;;26.60;11.95;;;;;;;-2.33;71.69;99207.81;4786968;29;20043;-63
2024/01/26 04:26:09;;;;;;;26.40;11.98;;;;;;;-1.89;71.70;99251.78;4801168;29;20057;-64
2024/01/26 04:28:37;;;;;;;25.65;11.45;;;;;;;-1.94;70.88;99234.56;4786793;29;20112;-64
2024/01/26 04:31:04;;;;;;;26.40;12.20;;;;;;;-1.84;71.04;99255.31;4788305;29;20073;-64
2024/01/26 04:33:30;;;;;;;25.35;10.90;;;;;;;-1.76;71.26;99258.09;4786309;29;20043;-64
2024/01/26 04:35:59;;;;;;;27.65;12.10;;;;;;;-1.78;71.29;99261.44;4787580;29;20508;-64
2024/01/26 04:38:25;;;;;;;24.80;10.77;;;;;;;-1.88;70.83;99247.53;4789194;29;20110;-66
2024/01/26 04:40:54;;;;;;;24.13;11.23;;;;;;;-1.94;70.22;99265.16;4787893;29;20047;-63
2024/01/26 04:43:20;;;;;;;25.67;11.02;;;;;;;-2.20;70.22;99268.59;4787570;29;20047;-63
2024/01/26 04:45:46;;;;;;;21.60;10.95;;;;;;;-2.05;71.93;99283.53;4772586;29;20058;-64
2024/01/26 04:48:13;;;;;;;28.15;12.07;;;;;;;-1.89;71.05;99278.94;4784036;29;20050;-65
2024/01/26 04:50:39;;;;;;;32.15;12.95;;;;;;;-1.91;71.07;99276.34;4786485;29;20054;-64
2024/01/26 04:53:09;;;;;;;26.20;12.38;;;;;;;-2.03;71.42;99260.63;4801722;29;20076;-64
2024/01/26 04:55:35;;;;;;;28.23;12.15;;;;;;;-1.93;70.88;99264.34;4783272;29;20058;-65
2024/01/26 04:58:01;;;;;;;26.25;12.32;;;;;;;-1.75;71.15;99276.84;4781263;29;20049;-64
2024/01/26 05:00:28;;;;;;;29.40;13.43;;;;;;;-1.67;71.21;99288.19;4788204;29;20204;-64
2024/01/26 05:02:54;;;;;;;28.48;12.95;;;;;;;-1.71;71.36;99256.56;4767927;29;20051;-64
2024/01/26 05:05:20;;;;;;;31.02;12.52;;;;;;;-1.60;70.88;99279.88;4773336;29;20055;-64
2024/01/26 05:07:46;;;;;;;28.48;12.73;;;;;;;-1.58;71.44;99272.28;4789163;29;20047;-63
2024/01/26 05:10:14;;;;;;;24.88;11.85;;;;;;;-1.59;71.46;99261.19;4786521;29;20387;-65
2024/01/26 05:12:45;;;;;;;26.30;12.95;;;;;;;-1.50;71.16;99298.06;4786401;29;20039;-64
2024/01/26 05:15:11;;;;;;;25.48;11.40;;;;;;;-1.56;70.77;99284.28;4802772;29;20122;-63
2024/01/26 05:17:38;;;;;;;24.25;11.55;;;;;;;-1.61;71.03;99296.00;4796007;29;20130;-65
2024/01/26 05:20:05;;;;;;;28.15;12.80;;;;;;;-1.71;71.01;99271.03;4785897;29;20074;-64
2024/01/26 05:22:32;;;;;;;28.33;13.02;;;;;;;-1.43;71.16;99305.06;4796932;29;20046;-64
2024/01/26 05:24:58;;;;;;;28.55;12.32;;;;;;;-1.71;70.57;99281.25;4799697;29;20077;-64
2024/01/26 05:27:25;;;;;;;26.88;13.13;;;;;;;-1.79;70.65;99257.16;4807021;29;20117;-65
2024/01/26 05:29:52;;;;;;;24.83;12.23;;;;;;;-1.52;70.74;99306.53;4783271;29;20049;-64
2024/01/26 05:32:22;;;;;;;28.38;12.80;;;;;;;-1.52;70.72;99298.88;4801201;29;20043;-64
2024/01/26 05:34:48;;;;;;;29.17;13.57;;;;;;;-1.47;70.92;99306.66;4797933;29;20058;-65
2024/01/26 05:37:20;;;;;;;27.23;11.88;;;;;;;-1.65;69.97;99309.47;4792248;29;20042;-64
2024/01/26 05:39:46;;;;;;;23.88;10.98;;;;;;;-2.07;69.13;99292.81;4804764;29;20049;-63
2024/01/26 05:42:13;;;;;;;27.88;12.13;;;;;;;-2.23;69.26;99322.03;4804281;29;20062;-64
2024/01/26 05:44:39;;;;;;;30.02;13.07;;;;;;;-2.24;70.76;99320.28;4792827;29;20043;-66
2024/01/26 05:47:05;;;;;;;27.10;11.30;;;;;;;-2.28;69.63;99314.22;4805548;29;20051;-62
2024/01/26 05:49:35;;;;;;;28.92;13.13;;;;;;;-2.48;70.18;99315.19;4818777;29;20466;-63
2024/01/26 05:52:01;;;;;;;32.78;13.65;;;;;;;-2.28;71.49;99333.72;4808151;29;20047;-64
2024/01/26 05:54:27;;;;;;;32.50;14.07;;;;;;;-2.24;70.38;99315.19;4809923;29;20039;-63
2024/01/26 05:56:53;;;;;;;31.83;13.48;;;;;;;-2.00;71.62;99330.47;4788909;29;20065;-63
2024/01/26 05:59:19;;;;;;;24.73;12.30;;;;;;;-1.76;71.12;99337.19;4792758;29;20082;-67
2024/01/26 06:01:46;;;;;;;26.40;12.07;;;;;;;-1.82;70.57;99334.47;4803916;29;20168;-65
2024/01/26 06:04:24;;;;;;;30.08;11.77;;;;;;;-1.91;69.95;99327.38;4803743;29;20090;-66
2024/01/26 06:06:50;;;;;;;25.30;11.20;;;;;;;-2.21;69.33;99339.94;4816856;29;20043;-66
2024/01/26 06:09:17;;;;;;;24.63;11.77;;;;;;;-2.17;70.75;99335.00;4820162;29;20046;-65
2024/01/26 06:11:45;;;;;;;25.15;11.80;;;;;;;-2.01;71.15;99325.31;4793378;29;20072;-66
2024/01/26 06:14:14;;;;;;;30.52;12.07;;;;;;;-1.87;71.30;99320.69;4803795;29;20522;-66
2024/01/26 06:16:51;;;;;;;22.65;10.38;;;;;;;-1.69;70.17;99348.50;4807423;29;20076;-66
2024/01/26 06:19:20;;;;;;;26.88;11.98;;;;;;;-1.80;71.17;99324.28;4820216;29;20072;-66
2024/01/26 06:21:54;;;;;;;25.30;11.75;;;;;;;-1.87;69.73;99352.13;4823119;29;20049;-66
2024/01/26 06:24:23;;;;;;;28.67;12.02;;;;;;;-2.24;69.25;99327.94;4797376;29;20518;-66
2024/01/26 06:26:49;;;;;;;29.20;12.60;;;;;;;-2.42;69.50;99338.34;4797186;29;20042;-66
2024/01/26 06:29:18;;;;;;;37.13;13.30;;;;;;;-2.34;69.99;99359.03;4813026;29;20042;-66
2024/01/26 06:31:44;;;;;;;31.00;12.60;;;;;;;-2.32;70.68;99367.59;4812650;29;20042;-67
2024/01/26 06:34:11;;;;;;;27.70;12.38;;;;;;;-2.15;71.53;99368.16;4822432;29;20043;-68
2024/01/26 06:36:40;;;;;;;28.85;12.40;;;;;;;-1.99;70.28;99374.69;4804896;29;20575;-69
2024/01/26 06:39:18;;;;;;;27.58;13.07;;;;;;;-2.23;69.60;99359.41;4808742;29;20042;-67
2024/01/26 06:41:44;;;;;;;29.70;13.52;;;;;;;-2.18;70.49;99356.19;4811258;29;20046;-68
2024/01/26 06:44:16;;;;;;;29.80;13.30;;;;;;;-2.00;70.98;99355.09;4798055;29;20042;-67
2024/01/26 06:46:45;;;;;;;27.00;11.98;;;;;;;-2.12;70.09;99335.13;4812585;29;20038;-67
2024/01/26 06:49:11;;;;;;;29.45;13.38;;;;;;;-2.00;70.48;99352.53;4810130;29;20046;-67
2024/01/26 06:51:37;;;;;;;25.35;12.77;;;;;;;-1.93;70.43;99364.72;4811711;29;20542;-68
2024/01/26 06:54:16;;;;;;;27.00;13.40;;;;;;;-1.88;70.44;99370.84;4825739;29;20058;-68
2024/01/26 06:56:45;;;;;;;24.95;12.68;;;;;;;-2.00;70.73;99335.59;4795309;29;20054;-65
2024/01/26 06:59:21;;;;;;;28.05;12.27;;;;;;;-1.68;70.49;99365.53;4782281;29;20061;-69
2024/01/26 07:01:48;;;;;;;29.95;12.70;;;;;;;-1.45;69.42;99375.66;4782737;29;20037;-69
2024/01/26 07:04:17;;;;;;;26.58;12.60;;;;;;;-1.48;69.97;99390.84;4796789;29;20046;-69
2024/01/26 07:06:46;;;;;;;35.05;15.93;;;;;;;-1.85;70.23;99324.16;4812736;29;20129;-67
2024/01/26 07:09:24;;;;;;;32.92;13.57;;;;;;;-1.76;69.38;99377.16;4798699;29;20141;-68
2024/01/26 07:11:50;;;;;;;29.52;13.70;;;;;;;-1.86;68.86;99397.25;4814154;29;20046;-67
2024/01/26 07:14:22;;;;;;;35.45;15.35;;;;;;;-1.76;69.55;99402.69;4825362;29;20034;-67
2024/01/26 07:16:50;;;;;;;26.58;14.30;;;;;;;-1.63;70.63;99366.53;4810133;29;20062;-65
2024/01/26 07:19:17;;;;;;;31.48;13.55;;;;;;;-1.38;70.23;99397.97;4824044;29;20042;-61
2024/01/26 07:21:44;;;;;;;27.80;12.77;;;;;;;-1.22;70.23;99386.59;4785922;29;20141;-62
2024/01/26 07:24:10;;;;;;;27.23;12.68;;;;;;;-0.97;70.23;99400.97;4826825;29;20050;-63
2024/01/26 07:26:41;;;;;;;25.40;12.60;;;;;;;-1.04;68.29;99383.75;4813299;29;20049;-65
2024/01/26 07:29:08;;;;;;;30.30;13.98;;;;;;;-1.22;68.63;99407.91;4828832;29;20046;-63
2024/01/26 07:31:33;;;;;;;31.25;14.60;;;;;;;-1.23;70.16;99405.28;4812450;29;20046;-63
2024/01/26 07:34:01;;;;;;;33.22;14.98;;;;;;;-1.31;69.32;99397.38;4798980;29;20046;-64
2024/01/26 07:36:28;;;;;;;32.95;14.40;;;;;;;-1.08;69.25;99412.56;4824642;29;20053;-63
2024/01/26 07:39:05;;;;;;;30.15;14.65;;;;;;;-0.86;70.44;99408.13;4827551;29;20042;-62
2024/01/26 07:41:35;;;;;;;27.48;13.45;;;;;;;-0.98;68.51;99399.25;4815077;29;20049;-61
2024/01/26 07:44:06;;;;;;;29.23;13.57;;;;;;;-1.17;68.45;99412.25;4814328;29;20071;-63
2024/01/26 07:46:32;;;;;;;26.45;13.35;;;;;;;-1.36;68.91;99396.34;4814829;29;20053;-63
2024/01/26 07:49:00;;;;;;;28.30;12.10;;;;;;;-1.37;68.25;99404.81;4813546;29;20118;-63
2024/01/26 07:51:28;;;;;;;26.52;12.90;;;;;;;-1.22;68.99;99412.13;4798007;29;20105;-59
2024/01/26 07:53:54;;;;;;;26.63;14.07;;;;;;;-1.01;68.98;99431.50;4814164;29;20046;-59
2024/01/26 07:56:24;;;;;;;30.40;14.32;;;;;;;-1.17;68.30;99409.72;4811200;29;20050;-61
2024/01/26 07:58:55;;;;;;;31.38;13.60;;;;;;;-1.01;69.00;99434.94;4812384;29;20046;-60
2024/01/26 08:01:31;;;;;;;27.43;14.00;;;;;;;-0.89;69.18;99416.56;4826688;29;20455;-60
2024/01/26 08:04:01;;;;;;;34.95;14.70;;;;;;;-0.52;69.15;99425.34;4793079;29;20526;-59
2024/01/26 08:06:30;;;;;;;28.00;12.32;;;;;;;-0.26;68.98;99443.16;4826470;29;20042;-61
2024/01/26 08:08:56;;;;;;;34.03;15.27;;;;;;;-0.19;68.93;99428.84;4828511;29;20053;-59
2024/01/26 08:11:22;;;;;;;30.45;14.48;;;;;;;0.04;68.75;99436.31;4828810;29;20042;-62
2024/01/26 08:13:48;;;;;;;26.70;14.23;;;;;;;0.18;68.89;99435.00;4825725;29;20202;-61
2024/01/26 08:16:17;;;;;;;32.58;14.90;;;;;;;0.26;68.41;99433.50;4813745;29;20049;-61
2024/01/26 08:18:43;;;;;;;32.70;13.05;;;;;;;-0.04;66.34;99447.19;4825376;29;20417;-61
2024/01/26 08:21:12;;;;;;;31.73;14.00;;;;;;;-0.21;67.51;99450.97;4811751;29;20533;-61
2024/01/26 08:23:38;;;;;;;39.78;17.73;;;;;;;-0.25;67.98;99408.22;4825933;29;20042;-61
2024/01/26 08:26:04;;;;;;;31.70;15.25;;;;;;;0.07;66.99;99442.38;4795309;29;20046;-61
2024/01/26 08:28:30;;;;;;;41.17;16.75;;;;;;;0.11;67.65;99438.22;4811241;29;20046;-61
2024/01/26 08:31:05;;;;;;;32.92;13.90;;;;;;;0.31;68.18;99431.06;4797476;29;20098;-61
2024/01/26 08:33:31;;;;;;;33.03;15.82;;;;;;;0.60;67.57;99444.63;4805835;29;20049;-61
2024/01/26 08:36:00;;;;;;;33.55;14.63;;;;;;;0.38;66.69;99409.94;4794872;29;20137;-61
2024/01/26 08:38:29;;;;;;;31.38;13.80;;;;;;;0.52;67.33;99441.03;4822298;29;20069;-63
2024/01/26 08:40:55;;;;;;;36.97;15.55;;;;;;;0.62;67.83;99436.13;4825041;29;20050;-60
2024/01/26 08:43:20;;;;;;;31.58;15.43;;;;;;;0.73;67.00;99450.94;4809394;29;20049;-59
2024/01/26 08:45:47;;;;;;;31.27;15.18;;;;;;;0.69;66.35;99450.81;4805174;29;20049;-61
2024/01/26 08:48:13;;;;;;;31.67;16.10;;;;;;;0.44;66.22;99455.31;4826574;29;20046;-62
2024/01/26 08:50:40;;;;;;;28.92;14.15;;;;;;;0.50;66.82;99450.34;4825983;29;20045;-62
2024/01/26 08:53:06;;;;;;;32.45;15.10;;;;;;;0.79;67.21;99455.34;4797868;29;20030;-62
2024/01/26 08:55:36;;;;;;;33.30;16.20;;;;;;;0.83;66.36;99448.63;4797577;29;20506;-61
2024/01/26 08:58:02;;;;;;;34.20;16.40;;;;;;;0.94;66.36;99447.16;4808943;29;20065;-62
2024/01/26 09:00:28;;;;;;;35.47;18.50;;;;;;;1.10;66.39;99448.41;4810569;29;20050;-62
2024/01/26 09:02:54;;;;;;;38.00;16.67;;;;;;;1.22;66.18;99454.63;4806464;29;20053;-60
2024/01/26 09:05:20;;;;;;;34.17;16.80;;;;;;;1.13;65.93;99452.72;4811946;29;20058;-61
2024/01/26 09:07:46;;;;;;;28.55;15.13;;;;;;;0.97;65.52;99436.16;4811479;29;20046;-61
2024/01/26 09:10:15;;;;;;;33.13;16.15;;;;;;;1.22;65.79;99454.63;4818617;29;20046;-63
2024/01/26 09:12:41;;;;;;;39.03;17.55;;;;;;;1.39;65.67;99452.47;4825228;29;20071;-62
2024/01/26 09:15:07;;;;;;;31.00;15.10;;;;;;;1.29;64.50;99452.28;4782681;29;20133;-61
2024/01/26 09:17:33;;;;;;;38.70;15.95;;;;;;;1.17;64.94;99447.72;4803768;29;20058;-63
2024/01/26 09:20:07;;;;;;;36.05;17.83;;;;;;;1.09;64.97;99462.06;4812898;29;20043;-61
2024/01/26 09:22:36;;;;;;;38.53;16.83;;;;;;;1.16;65.05;99442.56;4810497;29;20073;-61
2024/01/26 09:25:05;;;;;;;30.98;15.43;;;;;;;1.36;65.12;99450.72;4812670;29;20083;-62
2024/01/26 09:27:31;;;;;;;36.08;16.35;;;;;;;1.52;65.09;99457.06;4831222;29;20067;-61
2024/01/26 09:29:57;;;;;;;39.95;18.17;;;;;;;1.58;64.54;99452.06;4811086;29;20027;-62
2024/01/26 09:32:23;;;;;;;42.17;18.23;;;;;;;1.23;63.26;99444.44;4812131;29;20112;-63
2024/01/26 09:34:51;;;;;;;47.42;21.30;;;;;;;1.29;64.97;99456.53;4814232;29;20046;-62
2024/01/26 09:37:17;;;;;;;48.38;18.15;;;;;;;1.43;64.50;99459.41;4793615;29;20396;-63
2024/01/26 09:39:46;;;;;;;37.58;17.23;;;;;;;1.63;64.65;99457.31;4797353;29;20412;-62
2024/01/26 09:42:15;;;;;;;30.63;14.93;;;;;;;1.53;62.33;99460.47;4798196;29;20145;-61
2024/01/26 09:44:42;;;;;;;38.08;15.38;;;;;;;1.28;63.85;99445.41;4822224;29;20084;-61
2024/01/26 09:47:08;;;;;;;36.65;15.52;;;;;;;1.13;62.63;99461.31;4805944;29;20050;-63
2024/01/26 09:49:37;;;;;;;33.58;15.85;;;;;;;1.20;63.46;99452.06;4812488;29;20082;-61
2024/01/26 09:52:07;;;;;;;32.70;14.90;;;;;;;1.50;63.89;99454.44;4822356;29;20038;-62
2024/01/26 09:54:34;;;;;;;34.10;16.08;;;;;;;1.58;63.75;99444.34;4809619;29;20058;-58
2024/01/26 09:57:00;;;;;;;33.03;15.77;;;;;;;1.43;63.14;99459.41;4814277;29;20054;-61
2024/01/26 09:59:26;;;;;;;34.65;14.35;;;;;;;1.20;63.08;99454.63;4827966;29;20046;-58
2024/01/26 10:01:53;;;;;;;34.15;14.18;;;;;;;1.15;63.39;99459.66;4808787;29;20048;-60
2024/01/26 10:04:22;;;;;;;31.13;14.55;;;;;;;1.18;63.78;99458.84;4810739;29;20134;-61
2024/01/26 10:06:49;;;;;;;31.58;13.98;;;;;;;1.05;62.37;99465.38;4810317;29;20042;-60
2024/01/26 10:09:15;;;;;;;28.55;13.75;;;;;;;0.89;61.60;99470.13;4811741;29;20090;-62
2024/01/26 10:11:51;;;;;;;27.30;13.23;;;;;;;1.05;63.84;99467.94;4801899;29;20043;-61
2024/01/26 10:14:23;;;;;;;29.48;13.38;;;;;;;1.32;63.42;99464.28;4812417;29;20688;-59
2024/01/26 10:16:57;;;;;;;32.40;15.35;;;;;;;1.42;63.29;99455.13;4821698;29;20074;-60
2024/01/26 10:19:35;;;;;;;28.77;14.13;;;;;;;1.56;62.41;99460.56;4810510;29;20046;-62
2024/01/26 10:22:03;;;;;;;25.67;13.13;;;;;;;1.75;63.29;99472.94;4810421;29;20042;-60
2024/01/26 10:24:31;;;;;;;29.35;13.32;;;;;;;1.91;63.31;99469.00;4826446;29;20057;-59
2024/01/26 10:27:00;;;;;;;29.95;13.73;;;;;;;2.03;63.04;99455.56;4813105;29;20042;-60
2024/01/26 10:29:27;;;;;;;30.50;14.30;;;;;;;2.06;61.86;99463.34;4811085;29;20054;-61
2024/01/26 10:31:53;;;;;;;33.33;15.05;;;;;;;1.80;61.41;99480.72;4799912;29;20050;-61
2024/01/26 10:34:23;;;;;;;33.70;16.00;;;;;;;1.94;62.81;99478.47;4829466;29;20047;-61
2024/01/26 10:36:49;;;;;;;33.33;14.38;;;;;;;1.73;61.38;99474.59;4812244;29;20053;-64
2024/01/26 10:39:22;;;;;;;37.92;14.82;;;;;;;1.25;60.73;99458.16;4826737;29;20060;-61
2024/01/26 10:41:52;;;;;;;32.75;14.23;;;;;;;1.12;61.82;99469.81;4807448;29;20043;-63
2024/01/26 10:44:22;;;;;;;33.30;15.05;;;;;;;1.35;62.54;99478.03;4806310;29;20050;-63
2024/01/26 10:46:53;;;;;;;28.83;13.70;;;;;;;1.14;62.14;99463.03;4807155;29;20046;-60
2024/01/26 10:49:23;;;;;;;28.35;13.82;;;;;;;1.51;62.28;99473.28;4799634;29;20046;-60
2024/01/26 10:51:52;;;;;;;29.20;14.98;;;;;;;1.64;62.30;99479.56;4824607;29;20050;-62
2024/01/26 10:54:28;;;;;;;32.15;14.75;;;;;;;1.77;62.28;99476.41;4814075;29;20067;-62
2024/01/26 10:56:54;;;;;;;30.08;13.98;;;;;;;1.77;62.10;99458.47;4809430;29;20072;-61
2024/01/26 10:59:24;;;;;;;28.45;14.10;;;;;;;1.98;61.73;99477.69;4799400;29;20046;-60
2024/01/26 11:01:53;;;;;;;30.08;15.23;;;;;;;1.66;61.28;99457.34;4811251;29;20046;-62
2024/01/26 11:04:19;;;;;;;29.38;14.80;;;;;;;1.71;61.95;99460.03;4807511;29;20022;-57
2024/01/26 11:06:45;;;;;;;29.65;14.35;;;;;;;1.85;62.13;99463.75;4781777;29;20066;-61
2024/01/26 11:09:14;;;;;;;30.70;14.50;;;;;;;1.98;61.38;99477.69;4827563;29;20061;-62
2024/01/26 11:11:50;;;;;;;33.85;15.63;;;;;;;2.01;61.63;99464.94;4810183;29;20042;-61
2024/01/26 11:14:16;;;;;;;26.58;14.15;;;;;;;2.17;61.55;99480.63;4808670;29;20569;-59
2024/01/26 11:16:46;;;;;;;30.13;15.50;;;;;;;2.15;61.40;99477.16;4811800;29;20062;-59
2024/01/26 11:19:30;;;;;;;32.08;16.10;;;;;;;2.33;61.54;99476.69;4812999;29;20048;-60
2024/01/26 11:22:00;;;;;;;33.35;17.35;;;;;;;2.49;60.92;99496.69;4797715;29;20042;-59
2024/01/26 11:24:26;;;;;;;37.30;16.58;;;;;;;2.50;60.63;99497.56;4806990;29;20057;-59